< < Back
Terminal Aerodrome Forecast


Current Version              Previous Versions:   1  2  3  4  5  6  7  8  9  

Terminal Aerodrome Forecast

394
FTAK31 PAJN 301732
TAFAHN
TAF
PAHN 301732Z 3018/3118 09006KT P6SM -RA SCT007 OVC020
      TEMPO 3018/3020 OVC007
     FM302000 11006KT P6SM SCT020 BKN060
      TEMPO 3020/3023 -RA BKN020
     FM310400 03004KT P6SM BKN040 OVC100
     FM311200 30003KT P6SM -RA SCT020 OVC040
      AMD LTD TO CLD VIS AND WIND=



Latest METAR

443
SAUS70 KWBC 302300 RRA
MTRAHN
METAR KAHN 302251Z 10SM CLR 36/20 A2990 RMK AO2 SLP114 T03560200


USA.gov is the U.S. government's official web portal to all federal, state and local government web resources and services.